Latest Weather Observations for Tocal

IDN60801

Issued at 4:35 pm EST Saturday 2 August 2014 (issued every 30 minutes, with the page automatically refreshed every 10 minutes)

About weather observations | Map of weather stations | Latest weather observations for NSW | Other Formats
Station Details ID: 061250 Name: TOCAL AWS Lat: -32.63 Lon: 151.59 Height: 30.0 m
Data from the previous 72 hours. | See also: Recent months at Tocal
Date/Time
EST
Temp
°C
App
Temp
°C
Dew
Point
Rel
Hum
%
Delta-T
°C
Wind Press
QNH
hPa
Press
MSL
hPa
Rain
since 9 am
mm
Dir
 
Spd
km/h
Gust
km/h
Spd
kts
Gust
kts
02/04:30pm 12.7 9.4 2.4 49 4.5 SE 9 15 5 8 - - 0.0
02/04:00pm 14.1 10.2 1.4 42 5.5 SE 11 15 6 8 - - 0.0
02/03:30pm 15.0 10.6 0.5 37 6.2 ESE 13 19 7 10 - - 0.0
02/03:00pm 14.9 11.4 1.3 39 5.9 SSE 9 28 5 15 - - 0.0
02/02:30pm 15.2 11.4 1.5 39 6.0 SSE 11 17 6 9 - - 0.0
02/02:00pm 15.0 10.6 0.5 37 6.2 SSE 13 22 7 12 - - 0.0
02/01:30pm 14.5 10.7 -0.7 35 6.3 SW 9 19 5 10 - - 0.0
02/01:00pm 15.0 10.0 -0.9 33 6.6 SW 15 26 8 14 - - 0.0
02/12:30pm 14.3 9.7 -1.0 35 6.3 S 13 19 7 10 - - 0.0
02/12:00pm 13.8 9.1 -1.5 34 6.2 W 13 19 7 10 - - 0.0
02/11:30am 13.3 8.7 -1.3 36 5.9 W 13 22 7 12 - - 0.0
02/11:00am 12.8 7.8 -1.4 37 5.7 WSW 15 26 8 14 - - 0.0
02/10:30am 12.1 7.0 -1.9 37 5.5 W 15 28 8 15 - - 0.0
02/10:00am 12.0 6.6 -1.7 38 5.4 W 17 24 9 13 - - 0.0
02/09:30am 11.4 5.6 -1.2 41 5.0 W 19 28 10 15 - - 0.0
02/09:00am 10.7 6.1 -1.2 43 4.7 W 13 26 7 14 - - 0.0
02/08:30am 10.0 5.7 -2.0 43 4.6 WSW 11 22 6 12 - - 0.0
02/08:00am 9.2 4.6 -1.4 47 4.1 W 13 20 7 11 - - 0.0
02/07:30am 8.0 4.7 -1.1 52 3.5 N 6 9 3 5 - - 0.0
02/07:00am 7.5 3.2 -1.5 53 3.4 W 11 15 6 8 - - 0.0
02/06:30am 7.4 3.6 -1.0 55 3.2 W 9 17 5 9 - - 0.0
02/06:00am 7.8 3.2 -1.4 52 3.5 WNW 13 19 7 10 - - 0.0
02/05:30am 7.3 2.7 -0.8 56 3.1 WNW 13 24 7 13 - - 0.0
02/05:00am 7.9 2.5 -1.3 52 3.5 WNW 17 28 9 15 - - 0.0
02/04:30am 8.1 3.5 -1.0 52 3.5 WNW 13 20 7 11 - - 0.0
02/04:00am 8.1 2.4 -1.0 52 3.5 NW 19 32 10 17 - - 0.0
02/03:30am 8.1 3.8 -1.3 51 3.6 NW 11 19 6 10 - - 0.0
02/03:00am 8.3 3.7 -0.7 53 3.5 WNW 13 19 7 10 - - 0.0
02/02:30am 8.5 5.1 -0.8 52 3.6 W 7 13 4 7 - - 0.0
02/02:00am 9.4 5.6 -1.1 48 4.1 WNW 9 17 5 9 - - 0.0
02/01:30am 9.7 4.3 -1.4 46 4.3 W 17 30 9 16 - - 0.0
02/01:00am 10.2 4.4 -1.7 43 4.6 WNW 19 32 10 17 - - 0.0
02/12:30am 10.3 4.3 -1.9 42 4.7 WNW 20 33 11 18 - - 0.0
02/12:00am 10.9 4.8 -2.4 39 5.1 WNW 20 39 11 21 - - 0.0
 
Date/Time
EST
Temp
°C
App
Temp
°C
Dew
Point
Rel
Hum
%
Delta-T
°C
Wind Press
QNH
hPa
Press
MSL
hPa
Rain
since 9 am
mm
Dir
 
Spd
km/h
Gust
km/h
Spd
kts
Gust
kts
01/11:30pm 10.4 4.4 -1.7 43 4.7 NW 20 37 11 20 - - 0.0
01/11:00pm 10.9 4.8 -2.0 40 5.0 WNW 20 39 11 21 - - 0.0
01/10:30pm 11.2 5.3 -1.9 40 5.1 WNW 19 32 10 17 - - 0.0
01/10:00pm 11.5 5.6 -2.1 38 5.3 WNW 19 33 10 18 - - 0.0
01/09:30pm 12.1 5.5 -3.0 35 5.8 WNW 22 33 12 18 - - 0.0
01/09:00pm 12.6 6.0 -3.3 33 6.1 WNW 22 39 12 21 - - 0.0
01/08:30pm 12.5 6.3 -3.5 32 6.1 WNW 20 35 11 19 - - 0.0
01/08:00pm 12.9 6.6 -4.0 30 6.4 WNW 20 35 11 19 - - 0.0
01/07:30pm 12.8 6.1 -4.2 30 6.4 WNW 22 41 12 22 - - 0.0
01/07:00pm 13.3 7.0 -4.1 29 6.6 WNW 20 33 11 18 - - 0.0
01/06:30pm 13.4 7.3 -3.9 30 6.6 WNW 19 33 10 18 - - 0.0
01/06:00pm 13.8 7.4 -4.8 27 7.0 WNW 20 39 11 21 - - 0.0
01/05:38pm 14.2 6.3 -4.9 26 7.2 WNW 28 52 15 28 - - 0.0
01/05:35pm 14.2 6.3 -4.9 26 7.2 WNW 28 52 15 28 - - 0.0
01/05:30pm 14.2 7.1 -4.5 27 7.1 WNW 24 52 13 28 - - 0.0
01/05:00pm 14.7 8.0 -3.9 27 7.2 WNW 22 35 12 19 - - 0.0
01/04:30pm 15.4 8.4 -3.8 26 7.5 WNW 24 44 13 24 - - 0.0
01/04:04pm 15.9 8.3 -2.3 28 7.4 W 28 50 15 27 - - 0.0
01/04:00pm 16.1 9.7 -2.0 29 7.4 WNW 22 39 12 21 - - 0.0
01/03:30pm 16.6 8.3 -1.4 29 7.5 WNW 32 50 17 27 - - 0.0
01/03:00pm 17.6 9.8 1.8 34 7.1 W 32 50 17 27 - - 0.0
01/02:51pm 17.7 8.5 1.3 33 7.3 W 39 57 21 31 - - 0.0
01/02:30pm 18.1 10.8 0.3 30 7.8 WNW 28 50 15 27 - - 0.0
01/02:02pm 18.8 11.7 1.5 31 7.8 W 28 48 15 26 - - 0.0
01/02:00pm 18.8 11.7 1.5 31 7.8 WNW 28 48 15 26 - - 0.0
01/01:35pm 19.6 12.5 1.6 30 8.2 WNW 28 54 15 29 - - 0.0
01/01:32pm 19.6 12.5 1.6 30 8.2 WNW 28 54 15 29 - - 0.0
01/01:30pm 19.1 12.3 1.0 29 8.1 WNW 26 54 14 29 - - 0.0
01/01:00pm 19.1 12.2 2.4 33 7.7 WNW 28 46 15 25 - - 0.0
01/12:37pm 19.0 11.6 1.9 32 7.8 WNW 30 54 16 29 - - 0.0
01/12:34pm 19.0 11.6 1.9 32 7.8 WNW 30 54 16 29 - - 0.0
01/12:30pm 19.5 12.5 1.7 30 8.1 W 28 44 15 24 - - 0.0
01/12:00pm 19.7 12.6 1.4 29 8.3 NW 28 46 15 25 - - 0.0
01/11:31am 19.7 12.6 1.4 29 8.3 NW 28 46 15 25 - - 0.0
01/11:30am 19.6 12.9 1.2 29 8.3 NW 26 46 14 25 - - 0.0
01/11:05am 19.4 12.2 0.9 29 8.3 NW 28 48 15 26 - - 0.0
01/11:02am 19.4 12.2 0.9 29 8.3 NW 28 48 15 26 - - 0.0
01/11:00am 19.9 13.3 1.8 30 8.3 NW 26 39 14 21 - - 0.0
01/10:30am 18.9 11.5 -0.8 26 8.5 WNW 28 50 15 27 - - 0.0
01/10:28am 19.2 11.8 -0.6 26 8.6 WNW 28 50 15 27 - - 0.0
01/10:00am 19.7 12.9 -2.0 23 9.2 WNW 24 39 13 21 - - 0.0
01/09:30am 19.8 12.7 -4.0 19 9.7 NW 24 39 13 21 - - 0.0
01/09:03am 19.2 11.3 -4.5 19 9.5 NW 28 57 15 31 - - 0.0
01/09:00am 19.3 11.8 -4.3 20 9.5 NW 26 57 14 31 - - 0.0
01/08:30am 17.4 12.7 -1.8 27 8.0 NNW 13 22 7 12 - - 0.0
01/08:00am 15.9 11.3 -1.2 31 7.1 WNW 13 26 7 14 - - 0.0
01/07:30am 11.2 8.5 0.2 46 4.5 S 4 11 2 6 - - 0.0
01/07:00am 10.0 6.9 0.1 50 4.0 E 6 7 3 4 - - 0.0
01/06:30am 9.5 6.8 0.3 52 3.7 ESE 4 9 2 5 - - 0.0
01/06:00am 8.0 4.9 1.4 63 2.7 SW 7 9 4 5 - - 0.0
01/05:30am 6.4 4.3 2.0 73 1.8 W 2 7 1 4 - - 0.0
01/05:00am 8.7 7.0 1.7 61 2.9 CALM 0 0 0 0 - - 0.0
01/04:30am 7.4 5.0 2.1 69 2.2 NNW 4 9 2 5 - - 0.0
01/04:00am 9.8 6.7 1.4 56 3.5 SW 7 11 4 6 - - 0.0
01/03:30am 11.1 7.6 1.0 50 4.2 SW 9 11 5 6 - - 0.0
01/03:00am 10.1 7.8 2.6 59 3.2 N 4 7 2 4 - - 0.0
01/02:30am 14.5 11.3 -0.3 36 6.2 NE 6 9 3 5 - - 0.0
01/02:00am 15.2 11.7 -1.3 32 6.8 WNW 7 13 4 7 - - 0.0
01/01:30am 13.2 9.9 0.3 41 5.4 NW 7 9 4 5 - - 0.0
01/01:00am 11.9 8.9 0.6 46 4.7 WNW 6 7 3 4 - - 0.0
01/12:30am 11.3 9.6 1.9 52 4.0 CALM 0 6 0 3 - - 0.0
01/12:00am 13.6 11.3 0.6 41 5.5 E 2 9 1 5 - - 0.0
 
Date/Time
EST
Temp
°C
App
Temp
°C
Dew
Point
Rel
Hum
%
Delta-T
°C
Wind Press
QNH
hPa
Press
MSL
hPa
Rain
since 9 am
mm
Dir
 
Spd
km/h
Gust
km/h
Spd
kts
Gust
kts
31/11:30pm 13.2 10.4 -0.7 38 5.7 W 4 7 2 4 - - 0.0
31/11:00pm 11.9 10.1 1.5 49 4.4 CALM 0 0 0 0 - - 0.0
31/10:30pm 13.8 11.2 1.2 42 5.4 ENE 4 7 2 4 - - 0.0
31/10:00pm 15.7 12.3 -0.4 33 6.8 E 7 9 4 5 - - 0.0
31/09:30pm 16.0 12.1 -1.4 30 7.2 E 9 11 5 6 - - 0.0
31/09:00pm 15.9 12.2 -0.1 33 6.8 E 9 13 5 7 - - 0.0
31/08:30pm 16.8 13.3 -1.0 29 7.5 ENE 7 15 4 8 - - 0.0
31/08:00pm 16.9 13.7 0.6 33 7.1 E 7 9 4 5 - - 0.0
31/07:30pm 18.1 14.2 -1.2 27 8.2 N 9 22 5 12 - - 0.0
31/07:00pm 18.6 14.9 0.1 28 8.1 ENE 9 11 5 6 - - 0.0
31/06:30pm 19.8 15.9 -1.8 23 9.2 N 9 15 5 8 - - 0.0
31/06:00pm 19.1 15.8 -0.1 27 8.4 N 7 9 4 5 - - 0.0
31/05:30pm 19.6 16.3 -0.2 26 8.7 NNW 7 11 4 6 - - 0.0
31/05:00pm 20.1 16.1 0.4 26 8.8 NNW 11 17 6 9 - - 0.0
31/04:30pm 21.8 16.4 -1.7 20 10.2 NNW 17 22 9 12 - - 0.0
31/04:00pm 22.9 17.4 -2.2 18 10.9 NNW 17 33 9 18 - - 0.0
31/03:30pm 23.7 16.6 -4.5 15 11.8 NNW 24 48 13 26 - - 0.0
31/03:00pm 23.9 15.9 -5.5 13 12.1 NW 28 44 15 24 - - 0.0
31/02:30pm 24.1 17.5 -2.9 16 11.7 NW 22 32 12 17 - - 0.0
31/02:00pm 24.3 16.1 -3.9 15 12.0 NW 30 44 16 24 - - 0.0
31/01:37pm 24.0 14.8 -4.7 14 12.0 NW 35 57 19 31 - - 0.0
31/01:34pm 24.0 14.8 -4.7 14 12.0 NW 35 57 19 31 - - 0.0
31/01:30pm 24.3 15.2 -3.4 15 11.9 NNW 35 50 19 27 - - 0.0
31/01:09pm 24.5 16.6 -1.9 17 11.7 NW 30 52 16 28 - - 0.0
31/01:01pm 24.4 16.9 -1.7 17 11.6 NW 28 46 15 25 - - 0.0
31/01:00pm 24.3 16.3 -2.0 17 11.6 NW 30 46 16 25 - - 0.0
31/12:32pm 24.2 16.4 -0.5 19 11.2 NNW 30 48 16 26 - - 0.0
31/12:30pm 24.3 16.5 -0.7 19 11.3 NNW 30 48 16 26 - - 0.0
31/12:11pm 23.8 16.3 -1.4 18 11.2 NW 28 46 15 25 - - 0.0
31/12:00pm 24.8 17.2 0.8 20 11.2 NW 30 44 16 24 - - 0.0
31/11:38am 23.7 16.3 -0.8 19 11.0 NW 28 50 15 27 - - 0.0
31/11:35am 23.7 16.3 -0.8 19 11.0 NW 28 50 15 27 - - 0.0
31/11:30am 24.2 17.3 -0.1 20 11.1 NW 26 37 14 20 - - 0.0
31/11:23am 24.2 16.9 0.3 20 11.0 NW 28 46 15 25 - - 0.0
31/11:00am 23.3 17.0 1.8 24 10.1 NW 24 44 13 24 - - 0.0
31/10:30am 20.1 18.5 7.9 45 6.3 SSE 6 9 3 5 - - 0.0
31/10:00am 18.6 16.8 7.1 47 5.8 E 6 9 3 5 - - 0.0
31/09:30am 16.4 15.6 6.6 52 4.8 CALM 0 0 0 0 - - 0.0
31/09:00am 14.7 13.7 5.7 55 4.3 CALM 0 0 0 0 - - 0.0
31/08:30am 11.2 10.4 6.5 73 2.2 CALM 0 0 0 0 - - 0.0
31/08:00am 8.4 7.3 5.3 81 1.4 CALM 0 0 0 0 - - 0.0
31/07:30am 6.6 5.3 4.3 85 1.0 CALM 0 0 0 0 - - 0.0
31/07:00am 6.5 4.8 4.2 85 1.0 S 2 9 1 5 - - 0.0
31/06:30am 5.6 4.4 4.4 92 0.5 CALM 0 6 0 3 - - 0.0
31/06:00am 5.9 4.3 4.7 92 0.5 WNW 2 7 1 4 - - 0.0
31/05:30am 6.7 5.6 5.3 91 0.6 CALM 0 0 0 0 - - 0.0
31/05:00am 7.3 4.9 4.3 81 1.3 WNW 6 9 3 5 - - 0.0
31/04:30am 8.8 7.6 4.5 74 1.9 CALM 0 0 0 0 - - 0.0
31/04:00am 8.9 7.2 4.1 72 2.1 E 2 7 1 4 - - 0.0
31/03:30am 9.6 7.6 4.4 70 2.3 SSE 4 7 2 4 - - 0.0
31/03:00am 9.8 8.7 5.2 73 2.1 CALM 0 0 0 0 - - 0.0
31/02:30am 9.6 8.5 5.2 74 2.0 CALM 0 0 0 0 - - 0.0
31/02:00am 11.3 9.0 4.7 64 3.0 E 6 7 3 4 - - 0.0
31/01:30am 12.0 9.7 4.8 61 3.3 SSE 6 7 3 4 - - 0.0
31/01:00am 13.3 11.4 5.1 57 3.8 ESE 4 7 2 4 - - 0.0
31/12:30am 14.2 13.2 5.8 57 4.0 CALM 0 7 0 4 - - 0.0
31/12:00am 14.2 13.2 5.8 57 4.0 CALM 0 0 0 0 - - 0.0
 
Date/Time
EST
Temp
°C
App
Temp
°C
Dew
Point
Rel
Hum
%
Delta-T
°C
Wind Press
QNH
hPa
Press
MSL
hPa
Rain
since 9 am
mm
Dir
 
Spd
km/h
Gust
km/h
Spd
kts
Gust
kts
30/11:30pm 14.4 12.6 5.3 54 4.3 NW 4 7 2 4 - - 0.0
30/11:00pm 13.4 11.0 5.3 58 3.8 NW 7 13 4 7 - - 0.0
30/10:30pm 12.3 11.3 5.7 64 3.1 CALM 0 0 0 0 - - 0.0
30/10:00pm 12.0 11.2 6.3 68 2.7 CALM 0 0 0 0 - - 0.0
30/09:30pm 14.0 13.0 5.8 57 3.9 CALM 0 0 0 0 - - 0.0
30/09:00pm 15.8 14.8 5.6 50 4.9 CALM 0 0 0 0 - - 0.0
30/08:30pm 17.0 15.8 4.5 43 5.9 CALM 0 0 0 0 - - 0.0
30/08:00pm 17.2 14.2 4.3 42 6.1 WNW 9 17 5 9 - - 0.0
30/07:30pm 16.8 14.3 4.5 44 5.8 N 7 9 4 5 - - 0.0
30/07:00pm 18.4 14.6 3.7 37 6.9 NW 13 20 7 11 - - 0.0
30/06:30pm 18.3 14.9 4.2 39 6.7 NNW 11 15 6 8 - - 0.0
30/06:00pm 19.1 15.7 4.2 37 7.1 NW 11 17 6 9 - - 0.0
30/05:30pm 19.4 15.6 4.1 36 7.3 NW 13 19 7 10 - - 0.0
30/05:00pm 19.9 15.8 4.3 35 7.5 NW 15 28 8 15 - - 0.0

Other Formats:

Comma delimited format used in spreadsheet applications
http://www.bom.gov.au/fwo/IDN60801/IDN60801.94775.axf

JavaScript Object Notation format (JSON) in row-major order
http://www.bom.gov.au/fwo/IDN60801/IDN60801.94775.json